sensor_id;sensor_type;location;lat;lon;timestamp;P1;durP1;ratioP1;P2;durP2;ratioP2
19221;SDS011;9745;50.828;4.378;2023-10-31T00:02:14;29.67;;;13.10;;
19221;SDS011;9745;50.828;4.378;2023-10-31T00:04:41;26.20;;;14.63;;
19221;SDS011;9745;50.828;4.378;2023-10-31T00:07:07;24.33;;;13.47;;
19221;SDS011;9745;50.828;4.378;2023-10-31T00:09:32;24.53;;;13.20;;
19221;SDS011;9745;50.828;4.378;2023-10-31T00:11:58;26.87;;;13.07;;
19221;SDS011;9745;50.828;4.378;2023-10-31T00:14:24;19.57;;;12.37;;
19221;SDS011;9745;50.828;4.378;2023-10-31T00:16:51;22.53;;;11.63;;
19221;SDS011;9745;50.828;4.378;2023-10-31T00:19:17;21.43;;;12.47;;
19221;SDS011;9745;50.828;4.378;2023-10-31T00:21:43;21.13;;;12.93;;
19221;SDS011;9745;50.828;4.378;2023-10-31T00:24:09;23.47;;;11.33;;
19221;SDS011;9745;50.828;4.378;2023-10-31T00:26:35;20.53;;;10.27;;
19221;SDS011;9745;50.828;4.378;2023-10-31T00:29:01;15.67;;;10.47;;
19221;SDS011;9745;50.828;4.378;2023-10-31T00:31:27;13.80;;;9.63;;
19221;SDS011;9745;50.828;4.378;2023-10-31T00:33:52;17.00;;;8.87;;
19221;SDS011;9745;50.828;4.378;2023-10-31T00:36:18;14.93;;;8.67;;
19221;SDS011;9745;50.828;4.378;2023-10-31T00:38:44;14.20;;;8.20;;
19221;SDS011;9745;50.828;4.378;2023-10-31T00:41:10;15.60;;;8.27;;
19221;SDS011;9745;50.828;4.378;2023-10-31T00:43:36;12.20;;;7.70;;
19221;SDS011;9745;50.828;4.378;2023-10-31T00:46:02;12.10;;;7.47;;
19221;SDS011;9745;50.828;4.378;2023-10-31T00:48:29;11.70;;;7.73;;
19221;SDS011;9745;50.828;4.378;2023-10-31T00:50:55;11.77;;;6.83;;
19221;SDS011;9745;50.828;4.378;2023-10-31T00:53:20;10.73;;;6.90;;
19221;SDS011;9745;50.828;4.378;2023-10-31T00:55:46;13.93;;;7.27;;
19221;SDS011;9745;50.828;4.378;2023-10-31T00:58:13;11.87;;;6.80;;
19221;SDS011;9745;50.828;4.378;2023-10-31T01:00:38;14.20;;;6.93;;
19221;SDS011;9745;50.828;4.378;2023-10-31T01:03:05;10.13;;;6.93;;
19221;SDS011;9745;50.828;4.378;2023-10-31T01:05:31;11.10;;;7.20;;
19221;SDS011;9745;50.828;4.378;2023-10-31T01:07:57;11.27;;;6.67;;
19221;SDS011;9745;50.828;4.378;2023-10-31T01:10:23;13.13;;;7.03;;
19221;SDS011;9745;50.828;4.378;2023-10-31T01:12:49;12.73;;;7.47;;
19221;SDS011;9745;50.828;4.378;2023-10-31T01:15:15;11.57;;;7.10;;
19221;SDS011;9745;50.828;4.378;2023-10-31T01:17:41;11.40;;;7.00;;
19221;SDS011;9745;50.828;4.378;2023-10-31T01:20:07;12.17;;;6.83;;
19221;SDS011;9745;50.828;4.378;2023-10-31T01:22:34;12.97;;;7.33;;
19221;SDS011;9745;50.828;4.378;2023-10-31T01:25:00;9.97;;;7.03;;
19221;SDS011;9745;50.828;4.378;2023-10-31T01:27:26;12.80;;;7.00;;
19221;SDS011;9745;50.828;4.378;2023-10-31T01:29:52;12.70;;;6.27;;
19221;SDS011;9745;50.828;4.378;2023-10-31T01:32:18;9.33;;;6.80;;
19221;SDS011;9745;50.828;4.378;2023-10-31T01:34:44;10.73;;;6.90;;
19221;SDS011;9745;50.828;4.378;2023-10-31T01:37:10;10.07;;;6.80;;
19221;SDS011;9745;50.828;4.378;2023-10-31T01:39:36;12.83;;;7.23;;
19221;SDS011;9745;50.828;4.378;2023-10-31T01:42:02;12.73;;;7.00;;
19221;SDS011;9745;50.828;4.378;2023-10-31T01:44:28;10.17;;;6.50;;
19221;SDS011;9745;50.828;4.378;2023-10-31T01:46:54;10.23;;;6.90;;
19221;SDS011;9745;50.828;4.378;2023-10-31T01:49:20;11.10;;;6.30;;
19221;SDS011;9745;50.828;4.378;2023-10-31T01:51:47;9.10;;;7.10;;
19221;SDS011;9745;50.828;4.378;2023-10-31T01:54:13;8.80;;;5.97;;
19221;SDS011;9745;50.828;4.378;2023-10-31T01:56:40;11.67;;;7.20;;
19221;SDS011;9745;50.828;4.378;2023-10-31T01:59:06;11.57;;;7.67;;
19221;SDS011;9745;50.828;4.378;2023-10-31T02:01:32;9.90;;;6.13;;
19221;SDS011;9745;50.828;4.378;2023-10-31T02:03:58;11.50;;;6.63;;
19221;SDS011;9745;50.828;4.378;2023-10-31T02:06:27;10.83;;;6.67;;
19221;SDS011;9745;50.828;4.378;2023-10-31T02:08:55;8.23;;;6.40;;
19221;SDS011;9745;50.828;4.378;2023-10-31T02:11:21;11.10;;;6.73;;
19221;SDS011;9745;50.828;4.378;2023-10-31T02:13:47;8.57;;;6.60;;
19221;SDS011;9745;50.828;4.378;2023-10-31T02:16:13;13.10;;;7.07;;
19221;SDS011;9745;50.828;4.378;2023-10-31T02:18:39;9.43;;;7.07;;
19221;SDS011;9745;50.828;4.378;2023-10-31T02:21:05;12.20;;;7.07;;
19221;SDS011;9745;50.828;4.378;2023-10-31T02:23:31;9.60;;;6.77;;
19221;SDS011;9745;50.828;4.378;2023-10-31T02:25:57;12.93;;;6.93;;
19221;SDS011;9745;50.828;4.378;2023-10-31T02:28:22;10.80;;;6.53;;
19221;SDS011;9745;50.828;4.378;2023-10-31T02:30:52;9.57;;;6.27;;
19221;SDS011;9745;50.828;4.378;2023-10-31T02:33:19;11.63;;;7.13;;
19221;SDS011;9745;50.828;4.378;2023-10-31T02:35:45;9.93;;;6.27;;
19221;SDS011;9745;50.828;4.378;2023-10-31T02:38:11;9.77;;;6.47;;
19221;SDS011;9745;50.828;4.378;2023-10-31T02:40:37;8.27;;;6.70;;
19221;SDS011;9745;50.828;4.378;2023-10-31T02:43:03;8.67;;;6.50;;
19221;SDS011;9745;50.828;4.378;2023-10-31T02:45:29;10.13;;;6.13;;
19221;SDS011;9745;50.828;4.378;2023-10-31T02:47:55;7.70;;;6.37;;
19221;SDS011;9745;50.828;4.378;2023-10-31T02:50:21;7.67;;;6.43;;
19221;SDS011;9745;50.828;4.378;2023-10-31T02:52:47;11.37;;;6.57;;
19221;SDS011;9745;50.828;4.378;2023-10-31T02:55:13;13.17;;;7.17;;
19221;SDS011;9745;50.828;4.378;2023-10-31T02:57:39;10.67;;;6.20;;
19221;SDS011;9745;50.828;4.378;2023-10-31T03:00:05;10.57;;;6.03;;
19221;SDS011;9745;50.828;4.378;2023-10-31T03:02:31;7.43;;;5.90;;
19221;SDS011;9745;50.828;4.378;2023-10-31T03:04:57;10.27;;;6.50;;
19221;SDS011;9745;50.828;4.378;2023-10-31T03:07:23;7.50;;;5.80;;
19221;SDS011;9745;50.828;4.378;2023-10-31T03:09:49;9.00;;;6.47;;
19221;SDS011;9745;50.828;4.378;2023-10-31T03:12:15;9.63;;;6.77;;
19221;SDS011;9745;50.828;4.378;2023-10-31T03:14:41;13.33;;;7.67;;
19221;SDS011;9745;50.828;4.378;2023-10-31T03:17:07;12.93;;;8.00;;
19221;SDS011;9745;50.828;4.378;2023-10-31T03:19:33;12.20;;;7.80;;
19221;SDS011;9745;50.828;4.378;2023-10-31T03:21:59;12.77;;;8.10;;
19221;SDS011;9745;50.828;4.378;2023-10-31T03:24:25;13.53;;;8.70;;
19221;SDS011;9745;50.828;4.378;2023-10-31T03:26:51;12.73;;;9.07;;
19221;SDS011;9745;50.828;4.378;2023-10-31T03:29:17;14.60;;;8.97;;
19221;SDS011;9745;50.828;4.378;2023-10-31T03:31:44;12.83;;;9.23;;
19221;SDS011;9745;50.828;4.378;2023-10-31T03:34:10;13.97;;;9.50;;
19221;SDS011;9745;50.828;4.378;2023-10-31T03:36:36;16.83;;;10.00;;
19221;SDS011;9745;50.828;4.378;2023-10-31T03:39:02;10.97;;;8.67;;
19221;SDS011;9745;50.828;4.378;2023-10-31T03:41:29;11.17;;;8.37;;
19221;SDS011;9745;50.828;4.378;2023-10-31T03:43:54;13.23;;;9.40;;
19221;SDS011;9745;50.828;4.378;2023-10-31T03:46:20;11.30;;;8.50;;
19221;SDS011;9745;50.828;4.378;2023-10-31T03:48:46;11.27;;;9.27;;
19221;SDS011;9745;50.828;4.378;2023-10-31T03:51:12;13.37;;;8.60;;
19221;SDS011;9745;50.828;4.378;2023-10-31T03:53:38;11.27;;;8.17;;
19221;SDS011;9745;50.828;4.378;2023-10-31T03:56:04;13.80;;;9.20;;
19221;SDS011;9745;50.828;4.378;2023-10-31T03:58:30;13.63;;;8.87;;
19221;SDS011;9745;50.828;4.378;2023-10-31T04:00:56;12.87;;;9.17;;
19221;SDS011;9745;50.828;4.378;2023-10-31T04:03:22;13.43;;;9.50;;
19221;SDS011;9745;50.828;4.378;2023-10-31T04:05:48;14.73;;;10.13;;
19221;SDS011;9745;50.828;4.378;2023-10-31T04:08:14;15.50;;;9.53;;
19221;SDS011;9745;50.828;4.378;2023-10-31T04:10:40;14.47;;;11.13;;
19221;SDS011;9745;50.828;4.378;2023-10-31T04:13:06;18.40;;;10.03;;
19221;SDS011;9745;50.828;4.378;2023-10-31T04:15:32;16.73;;;10.70;;
19221;SDS011;9745;50.828;4.378;2023-10-31T04:17:59;16.90;;;10.60;;
19221;SDS011;9745;50.828;4.378;2023-10-31T04:20:25;14.23;;;10.20;;
19221;SDS011;9745;50.828;4.378;2023-10-31T04:22:51;12.73;;;9.93;;
19221;SDS011;9745;50.828;4.378;2023-10-31T04:25:17;15.67;;;9.00;;
19221;SDS011;9745;50.828;4.378;2023-10-31T04:27:43;15.83;;;10.37;;
19221;SDS011;9745;50.828;4.378;2023-10-31T04:30:10;17.03;;;9.77;;
19221;SDS011;9745;50.828;4.378;2023-10-31T04:32:36;13.17;;;9.30;;
19221;SDS011;9745;50.828;4.378;2023-10-31T04:35:02;13.93;;;9.63;;
19221;SDS011;9745;50.828;4.378;2023-10-31T04:37:28;14.50;;;9.97;;
19221;SDS011;9745;50.828;4.378;2023-10-31T04:39:54;19.37;;;9.87;;
19221;SDS011;9745;50.828;4.378;2023-10-31T04:42:20;17.90;;;10.73;;
19221;SDS011;9745;50.828;4.378;2023-10-31T04:44:47;14.77;;;10.43;;
19221;SDS011;9745;50.828;4.378;2023-10-31T04:47:13;19.03;;;11.27;;
19221;SDS011;9745;50.828;4.378;2023-10-31T04:49:39;14.57;;;10.27;;
19221;SDS011;9745;50.828;4.378;2023-10-31T04:52:05;18.40;;;11.30;;
19221;SDS011;9745;50.828;4.378;2023-10-31T04:54:31;18.23;;;11.07;;
19221;SDS011;9745;50.828;4.378;2023-10-31T04:56:57;17.17;;;11.33;;
19221;SDS011;9745;50.828;4.378;2023-10-31T04:59:23;17.97;;;11.23;;
19221;SDS011;9745;50.828;4.378;2023-10-31T05:01:50;26.17;;;12.00;;
19221;SDS011;9745;50.828;4.378;2023-10-31T05:04:17;17.80;;;11.33;;
19221;SDS011;9745;50.828;4.378;2023-10-31T05:06:43;16.23;;;11.40;;
19221;SDS011;9745;50.828;4.378;2023-10-31T05:09:10;17.40;;;11.40;;
19221;SDS011;9745;50.828;4.378;2023-10-31T05:11:36;16.23;;;11.47;;
19221;SDS011;9745;50.828;4.378;2023-10-31T05:14:02;15.87;;;11.33;;
19221;SDS011;9745;50.828;4.378;2023-10-31T05:16:28;15.43;;;11.00;;
19221;SDS011;9745;50.828;4.378;2023-10-31T05:18:54;15.40;;;10.80;;
19221;SDS011;9745;50.828;4.378;2023-10-31T05:21:20;14.93;;;10.10;;
19221;SDS011;9745;50.828;4.378;2023-10-31T05:23:46;16.63;;;11.40;;
19221;SDS011;9745;50.828;4.378;2023-10-31T05:26:12;17.93;;;10.57;;
19221;SDS011;9745;50.828;4.378;2023-10-31T05:28:38;12.53;;;10.13;;
19221;SDS011;9745;50.828;4.378;2023-10-31T05:31:04;15.27;;;10.60;;
19221;SDS011;9745;50.828;4.378;2023-10-31T05:33:29;13.03;;;9.87;;
19221;SDS011;9745;50.828;4.378;2023-10-31T05:35:55;16.23;;;10.37;;
19221;SDS011;9745;50.828;4.378;2023-10-31T05:38:21;16.40;;;10.47;;
19221;SDS011;9745;50.828;4.378;2023-10-31T05:40:47;18.43;;;10.47;;
19221;SDS011;9745;50.828;4.378;2023-10-31T05:43:13;15.80;;;10.73;;
19221;SDS011;9745;50.828;4.378;2023-10-31T05:45:39;17.90;;;10.93;;
19221;SDS011;9745;50.828;4.378;2023-10-31T05:48:05;16.10;;;10.30;;
19221;SDS011;9745;50.828;4.378;2023-10-31T05:50:31;16.67;;;11.50;;
19221;SDS011;9745;50.828;4.378;2023-10-31T05:52:57;14.10;;;10.80;;
19221;SDS011;9745;50.828;4.378;2023-10-31T05:55:23;15.80;;;10.40;;
19221;SDS011;9745;50.828;4.378;2023-10-31T05:57:49;15.27;;;10.03;;
19221;SDS011;9745;50.828;4.378;2023-10-31T06:00:15;16.70;;;10.63;;
19221;SDS011;9745;50.828;4.378;2023-10-31T06:02:41;13.87;;;9.90;;
19221;SDS011;9745;50.828;4.378;2023-10-31T06:05:07;13.80;;;9.83;;
19221;SDS011;9745;50.828;4.378;2023-10-31T06:07:33;13.47;;;10.40;;
19221;SDS011;9745;50.828;4.378;2023-10-31T06:09:59;13.43;;;9.97;;
19221;SDS011;9745;50.828;4.378;2023-10-31T06:12:25;17.07;;;10.03;;
19221;SDS011;9745;50.828;4.378;2023-10-31T06:14:52;12.07;;;9.60;;
19221;SDS011;9745;50.828;4.378;2023-10-31T06:17:18;16.93;;;9.90;;
19221;SDS011;9745;50.828;4.378;2023-10-31T06:19:44;14.17;;;9.13;;
19221;SDS011;9745;50.828;4.378;2023-10-31T06:22:12;13.07;;;9.87;;
19221;SDS011;9745;50.828;4.378;2023-10-31T06:24:38;13.83;;;8.57;;
19221;SDS011;9745;50.828;4.378;2023-10-31T06:27:05;11.03;;;8.50;;
19221;SDS011;9745;50.828;4.378;2023-10-31T06:29:31;14.37;;;9.03;;
19221;SDS011;9745;50.828;4.378;2023-10-31T06:31:57;13.50;;;9.60;;
19221;SDS011;9745;50.828;4.378;2023-10-31T06:34:23;13.57;;;8.70;;
19221;SDS011;9745;50.828;4.378;2023-10-31T06:36:49;14.07;;;9.43;;
19221;SDS011;9745;50.828;4.378;2023-10-31T06:39:17;15.77;;;8.93;;
19221;SDS011;9745;50.828;4.378;2023-10-31T06:41:43;13.57;;;8.83;;
19221;SDS011;9745;50.828;4.378;2023-10-31T06:44:09;17.40;;;8.63;;
19221;SDS011;9745;50.828;4.378;2023-10-31T06:46:35;11.43;;;7.80;;
19221;SDS011;9745;50.828;4.378;2023-10-31T06:49:01;13.27;;;7.70;;
19221;SDS011;9745;50.828;4.378;2023-10-31T06:51:27;11.73;;;8.03;;
19221;SDS011;9745;50.828;4.378;2023-10-31T06:53:53;11.73;;;7.30;;
19221;SDS011;9745;50.828;4.378;2023-10-31T06:56:19;11.77;;;8.03;;
19221;SDS011;9745;50.828;4.378;2023-10-31T06:58:44;12.67;;;7.60;;
19221;SDS011;9745;50.828;4.378;2023-10-31T07:01:10;11.53;;;7.97;;
19221;SDS011;9745;50.828;4.378;2023-10-31T07:03:38;15.73;;;7.73;;
19221;SDS011;9745;50.828;4.378;2023-10-31T07:06:04;11.43;;;7.30;;
19221;SDS011;9745;50.828;4.378;2023-10-31T07:08:31;11.40;;;7.70;;
19221;SDS011;9745;50.828;4.378;2023-10-31T07:10:57;10.03;;;6.93;;
19221;SDS011;9745;50.828;4.378;2023-10-31T07:13:22;10.70;;;7.43;;
19221;SDS011;9745;50.828;4.378;2023-10-31T07:15:48;10.93;;;6.90;;
19221;SDS011;9745;50.828;4.378;2023-10-31T07:18:14;16.43;;;7.80;;
19221;SDS011;9745;50.828;4.378;2023-10-31T07:20:40;11.87;;;7.60;;
19221;SDS011;9745;50.828;4.378;2023-10-31T07:23:06;10.93;;;7.43;;
19221;SDS011;9745;50.828;4.378;2023-10-31T07:25:32;9.53;;;7.63;;
19221;SDS011;9745;50.828;4.378;2023-10-31T07:27:58;12.10;;;7.87;;
19221;SDS011;9745;50.828;4.378;2023-10-31T07:30:24;15.20;;;8.13;;
19221;SDS011;9745;50.828;4.378;2023-10-31T07:32:50;11.03;;;6.93;;
19221;SDS011;9745;50.828;4.378;2023-10-31T07:35:16;10.87;;;7.33;;
19221;SDS011;9745;50.828;4.378;2023-10-31T07:37:43;9.53;;;7.03;;
19221;SDS011;9745;50.828;4.378;2023-10-31T07:40:09;19.47;;;6.90;;
19221;SDS011;9745;50.828;4.378;2023-10-31T07:42:35;35.13;;;9.00;;
19221;SDS011;9745;50.828;4.378;2023-10-31T07:45:01;24.23;;;7.10;;
19221;SDS011;9745;50.828;4.378;2023-10-31T07:47:27;33.37;;;7.97;;
19221;SDS011;9745;50.828;4.378;2023-10-31T07:49:53;26.83;;;7.30;;
19221;SDS011;9745;50.828;4.378;2023-10-31T07:52:19;24.17;;;6.67;;
19221;SDS011;9745;50.828;4.378;2023-10-31T07:54:45;31.50;;;8.37;;
19221;SDS011;9745;50.828;4.378;2023-10-31T07:57:11;31.70;;;7.13;;
19221;SDS011;9745;50.828;4.378;2023-10-31T07:59:38;10.83;;;6.07;;
19221;SDS011;9745;50.828;4.378;2023-10-31T08:02:03;18.30;;;6.87;;
19221;SDS011;9745;50.828;4.378;2023-10-31T08:04:29;31.63;;;8.47;;
19221;SDS011;9745;50.828;4.378;2023-10-31T08:06:55;52.23;;;7.73;;
19221;SDS011;9745;50.828;4.378;2023-10-31T08:09:21;19.43;;;5.37;;
19221;SDS011;9745;50.828;4.378;2023-10-31T08:11:47;46.10;;;7.57;;
19221;SDS011;9745;50.828;4.378;2023-10-31T08:14:13;78.10;;;8.00;;
19221;SDS011;9745;50.828;4.378;2023-10-31T08:16:40;21.60;;;5.37;;
19221;SDS011;9745;50.828;4.378;2023-10-31T08:19:06;14.67;;;5.10;;
19221;SDS011;9745;50.828;4.378;2023-10-31T08:21:33;23.27;;;5.43;;
19221;SDS011;9745;50.828;4.378;2023-10-31T08:24:04;29.43;;;5.70;;
19221;SDS011;9745;50.828;4.378;2023-10-31T08:26:33;46.97;;;5.90;;
19221;SDS011;9745;50.828;4.378;2023-10-31T08:28:59;44.77;;;7.13;;
19221;SDS011;9745;50.828;4.378;2023-10-31T08:31:25;30.60;;;5.03;;
19221;SDS011;9745;50.828;4.378;2023-10-31T08:33:51;21.53;;;4.77;;
19221;SDS011;9745;50.828;4.378;2023-10-31T08:36:17;18.77;;;5.50;;
19221;SDS011;9745;50.828;4.378;2023-10-31T08:38:43;15.07;;;4.97;;
19221;SDS011;9745;50.828;4.378;2023-10-31T08:41:09;17.70;;;4.17;;
19221;SDS011;9745;50.828;4.378;2023-10-31T08:43:35;21.93;;;4.57;;
19221;SDS011;9745;50.828;4.378;2023-10-31T08:46:01;10.27;;;3.80;;
19221;SDS011;9745;50.828;4.378;2023-10-31T08:48:27;46.33;;;5.87;;
19221;SDS011;9745;50.828;4.378;2023-10-31T08:50:53;26.47;;;5.23;;
19221;SDS011;9745;50.828;4.378;2023-10-31T08:53:19;40.57;;;5.83;;
19221;SDS011;9745;50.828;4.378;2023-10-31T08:55:45;40.43;;;5.57;;
19221;SDS011;9745;50.828;4.378;2023-10-31T08:58:11;23.87;;;5.43;;
19221;SDS011;9745;50.828;4.378;2023-10-31T09:00:43;16.37;;;4.57;;
19221;SDS011;9745;50.828;4.378;2023-10-31T09:03:09;20.20;;;3.90;;
19221;SDS011;9745;50.828;4.378;2023-10-31T09:05:35;16.67;;;4.20;;
19221;SDS011;9745;50.828;4.378;2023-10-31T09:08:01;32.10;;;5.00;;
19221;SDS011;9745;50.828;4.378;2023-10-31T09:10:27;23.60;;;3.80;;
19221;SDS011;9745;50.828;4.378;2023-10-31T09:12:53;18.93;;;3.97;;
19221;SDS011;9745;50.828;4.378;2023-10-31T09:15:19;20.33;;;4.20;;
19221;SDS011;9745;50.828;4.378;2023-10-31T09:17:46;14.47;;;3.57;;
19221;SDS011;9745;50.828;4.378;2023-10-31T09:20:12;23.03;;;4.07;;
19221;SDS011;9745;50.828;4.378;2023-10-31T09:22:38;28.20;;;4.70;;
19221;SDS011;9745;50.828;4.378;2023-10-31T09:25:04;18.77;;;3.93;;
19221;SDS011;9745;50.828;4.378;2023-10-31T09:27:30;34.17;;;4.20;;
19221;SDS011;9745;50.828;4.378;2023-10-31T09:29:56;23.53;;;3.77;;
19221;SDS011;9745;50.828;4.378;2023-10-31T09:32:22;12.40;;;3.50;;
19221;SDS011;9745;50.828;4.378;2023-10-31T09:34:48;9.67;;;2.83;;
19221;SDS011;9745;50.828;4.378;2023-10-31T09:37:14;9.93;;;3.30;;
19221;SDS011;9745;50.828;4.378;2023-10-31T09:39:40;7.60;;;3.10;;
19221;SDS011;9745;50.828;4.378;2023-10-31T09:42:07;8.13;;;3.63;;
19221;SDS011;9745;50.828;4.378;2023-10-31T09:44:33;8.40;;;3.40;;
19221;SDS011;9745;50.828;4.378;2023-10-31T09:47:00;19.63;;;4.20;;
19221;SDS011;9745;50.828;4.378;2023-10-31T09:49:26;11.43;;;3.63;;
19221;SDS011;9745;50.828;4.378;2023-10-31T09:51:53;13.57;;;4.00;;
19221;SDS011;9745;50.828;4.378;2023-10-31T09:54:19;18.90;;;4.07;;
19221;SDS011;9745;50.828;4.378;2023-10-31T09:56:45;9.27;;;3.83;;
19221;SDS011;9745;50.828;4.378;2023-10-31T09:59:13;8.60;;;3.60;;
19221;SDS011;9745;50.828;4.378;2023-10-31T10:01:39;10.83;;;4.00;;
19221;SDS011;9745;50.828;4.378;2023-10-31T10:04:06;6.30;;;3.00;;
19221;SDS011;9745;50.828;4.378;2023-10-31T10:06:33;20.13;;;3.73;;
19221;SDS011;9745;50.828;4.378;2023-10-31T10:08:59;14.70;;;4.53;;
19221;SDS011;9745;50.828;4.378;2023-10-31T10:11:27;9.93;;;3.40;;
19221;SDS011;9745;50.828;4.378;2023-10-31T10:13:53;15.97;;;3.67;;
19221;SDS011;9745;50.828;4.378;2023-10-31T10:16:30;8.60;;;3.23;;
19221;SDS011;9745;50.828;4.378;2023-10-31T10:18:56;11.70;;;3.37;;
19221;SDS011;9745;50.828;4.378;2023-10-31T10:21:22;13.27;;;3.50;;
19221;SDS011;9745;50.828;4.378;2023-10-31T10:23:48;13.87;;;4.07;;
19221;SDS011;9745;50.828;4.378;2023-10-31T10:26:17;14.67;;;4.47;;
19221;SDS011;9745;50.828;4.378;2023-10-31T10:28:46;19.30;;;4.40;;
19221;SDS011;9745;50.828;4.378;2023-10-31T10:31:15;18.13;;;4.57;;
19221;SDS011;9745;50.828;4.378;2023-10-31T10:33:41;26.83;;;6.10;;
19221;SDS011;9745;50.828;4.378;2023-10-31T10:36:08;13.37;;;4.63;;
19221;SDS011;9745;50.828;4.378;2023-10-31T10:38:35;10.03;;;3.60;;
19221;SDS011;9745;50.828;4.378;2023-10-31T10:41:01;9.87;;;4.03;;
19221;SDS011;9745;50.828;4.378;2023-10-31T10:43:27;10.27;;;4.00;;
19221;SDS011;9745;50.828;4.378;2023-10-31T10:45:54;14.57;;;4.20;;
19221;SDS011;9745;50.828;4.378;2023-10-31T10:48:21;15.83;;;5.63;;
19221;SDS011;9745;50.828;4.378;2023-10-31T10:50:49;14.67;;;5.17;;
19221;SDS011;9745;50.828;4.378;2023-10-31T10:53:21;13.73;;;5.33;;
19221;SDS011;9745;50.828;4.378;2023-10-31T10:55:52;15.93;;;5.50;;
19221;SDS011;9745;50.828;4.378;2023-10-31T11:01:19;8.63;;;4.77;;
19221;SDS011;9745;50.828;4.378;2023-10-31T11:03:46;15.47;;;5.07;;
19221;SDS011;9745;50.828;4.378;2023-10-31T11:06:12;15.20;;;6.67;;
19221;SDS011;9745;50.828;4.378;2023-10-31T11:08:38;13.27;;;7.70;;
19221;SDS011;9745;50.828;4.378;2023-10-31T11:11:05;14.00;;;7.83;;
19221;SDS011;9745;50.828;4.378;2023-10-31T11:13:31;18.73;;;8.70;;
19221;SDS011;9745;50.828;4.378;2023-10-31T11:15:59;16.43;;;9.17;;
19221;SDS011;9745;50.828;4.378;2023-10-31T11:18:27;19.60;;;8.90;;
19221;SDS011;9745;50.828;4.378;2023-10-31T11:20:53;17.83;;;9.53;;
19221;SDS011;9745;50.828;4.378;2023-10-31T11:23:20;16.03;;;9.53;;
19221;SDS011;9745;50.828;4.378;2023-10-31T11:25:46;14.07;;;8.80;;
19221;SDS011;9745;50.828;4.378;2023-10-31T11:28:16;18.43;;;10.07;;
19221;SDS011;9745;50.828;4.378;2023-10-31T11:30:42;16.80;;;8.07;;
19221;SDS011;9745;50.828;4.378;2023-10-31T11:33:13;19.10;;;9.60;;
19221;SDS011;9745;50.828;4.378;2023-10-31T11:35:39;36.70;;;10.37;;
19221;SDS011;9745;50.828;4.378;2023-10-31T11:38:06;79.93;;;12.33;;
19221;SDS011;9745;50.828;4.378;2023-10-31T11:40:33;139.30;;;14.23;;
19221;SDS011;9745;50.828;4.378;2023-10-31T11:43:02;87.63;;;13.47;;
19221;SDS011;9745;50.828;4.378;2023-10-31T11:48:06;43.87;;;8.97;;
19221;SDS011;9745;50.828;4.378;2023-10-31T11:50:33;23.27;;;8.20;;
19221;SDS011;9745;50.828;4.378;2023-10-31T11:53:00;18.03;;;7.87;;
19221;SDS011;9745;50.828;4.378;2023-10-31T11:55:27;52.43;;;9.17;;
19221;SDS011;9745;50.828;4.378;2023-10-31T11:57:52;45.10;;;8.27;;
19221;SDS011;9745;50.828;4.378;2023-10-31T12:00:22;23.40;;;8.43;;
19221;SDS011;9745;50.828;4.378;2023-10-31T12:03:00;23.87;;;7.37;;
19221;SDS011;9745;50.828;4.378;2023-10-31T12:05:27;22.10;;;8.37;;
19221;SDS011;9745;50.828;4.378;2023-10-31T12:07:53;23.90;;;6.60;;
19221;SDS011;9745;50.828;4.378;2023-10-31T12:10:26;27.23;;;6.93;;
19221;SDS011;9745;50.828;4.378;2023-10-31T12:12:55;19.27;;;6.43;;
19221;SDS011;9745;50.828;4.378;2023-10-31T12:15:21;22.00;;;6.00;;
19221;SDS011;9745;50.828;4.378;2023-10-31T12:17:48;15.73;;;6.27;;
19221;SDS011;9745;50.828;4.378;2023-10-31T12:20:14;26.97;;;6.73;;
19221;SDS011;9745;50.828;4.378;2023-10-31T12:22:41;13.73;;;6.17;;
19221;SDS011;9745;50.828;4.378;2023-10-31T12:25:07;19.60;;;6.20;;
19221;SDS011;9745;50.828;4.378;2023-10-31T12:27:46;15.27;;;5.67;;
19221;SDS011;9745;50.828;4.378;2023-10-31T12:30:14;13.70;;;5.43;;
19221;SDS011;9745;50.828;4.378;2023-10-31T12:32:41;17.90;;;5.83;;
19221;SDS011;9745;50.828;4.378;2023-10-31T12:35:08;17.23;;;5.77;;
19221;SDS011;9745;50.828;4.378;2023-10-31T12:37:35;21.20;;;5.77;;
19221;SDS011;9745;50.828;4.378;2023-10-31T12:40:01;26.10;;;5.53;;
19221;SDS011;9745;50.828;4.378;2023-10-31T12:42:30;30.60;;;6.00;;
19221;SDS011;9745;50.828;4.378;2023-10-31T12:44:57;14.53;;;4.77;;
19221;SDS011;9745;50.828;4.378;2023-10-31T12:47:24;17.90;;;4.43;;
19221;SDS011;9745;50.828;4.378;2023-10-31T12:52:52;65.67;;;6.87;;
19221;SDS011;9745;50.828;4.378;2023-10-31T12:55:19;21.93;;;4.17;;
19221;SDS011;9745;50.828;4.378;2023-10-31T12:57:45;42.20;;;5.30;;
19221;SDS011;9745;50.828;4.378;2023-10-31T13:00:12;65.23;;;6.83;;
19221;SDS011;9745;50.828;4.378;2023-10-31T13:02:39;127.10;;;9.37;;
19221;SDS011;9745;50.828;4.378;2023-10-31T13:05:09;116.23;;;9.67;;
19221;SDS011;9745;50.828;4.378;2023-10-31T13:07:35;107.07;;;7.73;;
19221;SDS011;9745;50.828;4.378;2023-10-31T13:10:01;151.90;;;10.80;;
19221;SDS011;9745;50.828;4.378;2023-10-31T13:12:29;80.53;;;8.77;;
19221;SDS011;9745;50.828;4.378;2023-10-31T13:14:55;20.47;;;4.20;;
19221;SDS011;9745;50.828;4.378;2023-10-31T13:17:21;11.33;;;3.40;;
19221;SDS011;9745;50.828;4.378;2023-10-31T13:19:47;21.17;;;4.30;;
19221;SDS011;9745;50.828;4.378;2023-10-31T13:22:13;21.53;;;4.87;;
19221;SDS011;9745;50.828;4.378;2023-10-31T13:24:39;15.00;;;4.20;;
19221;SDS011;9745;50.828;4.378;2023-10-31T13:27:05;14.17;;;4.63;;
19221;SDS011;9745;50.828;4.378;2023-10-31T13:29:32;13.77;;;5.10;;
19221;SDS011;9745;50.828;4.378;2023-10-31T13:31:58;16.37;;;5.20;;
19221;SDS011;9745;50.828;4.378;2023-10-31T13:34:24;14.90;;;5.50;;
19221;SDS011;9745;50.828;4.378;2023-10-31T13:36:51;9.57;;;5.40;;
19221;SDS011;9745;50.828;4.378;2023-10-31T13:39:18;9.83;;;5.83;;
19221;SDS011;9745;50.828;4.378;2023-10-31T13:41:44;10.00;;;5.30;;
19221;SDS011;9745;50.828;4.378;2023-10-31T13:44:11;21.20;;;6.20;;
19221;SDS011;9745;50.828;4.378;2023-10-31T13:46:37;11.53;;;5.17;;
19221;SDS011;9745;50.828;4.378;2023-10-31T13:49:03;24.87;;;6.37;;
19221;SDS011;9745;50.828;4.378;2023-10-31T13:51:29;15.83;;;6.10;;
19221;SDS011;9745;50.828;4.378;2023-10-31T13:53:55;16.57;;;6.70;;
19221;SDS011;9745;50.828;4.378;2023-10-31T13:56:21;12.07;;;5.80;;
19221;SDS011;9745;50.828;4.378;2023-10-31T13:58:47;11.57;;;5.67;;
19221;SDS011;9745;50.828;4.378;2023-10-31T14:01:14;8.77;;;5.50;;
19221;SDS011;9745;50.828;4.378;2023-10-31T14:03:39;8.37;;;5.00;;
19221;SDS011;9745;50.828;4.378;2023-10-31T14:06:05;10.77;;;4.70;;
19221;SDS011;9745;50.828;4.378;2023-10-31T14:08:31;8.60;;;5.43;;
19221;SDS011;9745;50.828;4.378;2023-10-31T14:10:57;8.47;;;4.90;;
19221;SDS011;9745;50.828;4.378;2023-10-31T14:13:23;8.47;;;4.33;;
19221;SDS011;9745;50.828;4.378;2023-10-31T14:15:49;95.50;;;45.50;;
19221;SDS011;9745;50.828;4.378;2023-10-31T14:18:15;67.83;;;21.37;;
19221;SDS011;9745;50.828;4.378;2023-10-31T14:20:41;34.30;;;9.60;;
19221;SDS011;9745;50.828;4.378;2023-10-31T14:23:07;26.73;;;8.13;;
19221;SDS011;9745;50.828;4.378;2023-10-31T14:25:33;23.07;;;10.37;;
19221;SDS011;9745;50.828;4.378;2023-10-31T14:27:59;32.90;;;13.70;;
19221;SDS011;9745;50.828;4.378;2023-10-31T14:30:25;18.10;;;7.50;;
19221;SDS011;9745;50.828;4.378;2023-10-31T14:32:51;12.13;;;5.93;;
19221;SDS011;9745;50.828;4.378;2023-10-31T14:35:18;32.17;;;14.13;;
19221;SDS011;9745;50.828;4.378;2023-10-31T14:37:43;16.23;;;8.10;;
19221;SDS011;9745;50.828;4.378;2023-10-31T14:40:10;16.07;;;9.23;;
19221;SDS011;9745;50.828;4.378;2023-10-31T14:42:36;14.07;;;5.80;;
19221;SDS011;9745;50.828;4.378;2023-10-31T14:45:02;30.33;;;15.33;;
19221;SDS011;9745;50.828;4.378;2023-10-31T14:47:28;20.10;;;8.30;;
19221;SDS011;9745;50.828;4.378;2023-10-31T14:49:54;31.23;;;13.90;;